sensor_id;sensor_type;location;lat;lon;timestamp;P1;durP1;ratioP1;P2;durP2;ratioP2
63930;SDS011;50111;48.114;-2.066;2022-12-07T00:01:10;40.25;;;20.60;;
63930;SDS011;50111;48.114;-2.066;2022-12-07T00:03:57;41.08;;;21.35;;
63930;SDS011;50111;48.114;-2.066;2022-12-07T00:06:29;39.50;;;22.10;;
63930;SDS011;50111;48.114;-2.066;2022-12-07T00:08:57;39.42;;;20.52;;
63930;SDS011;50111;48.114;-2.066;2022-12-07T00:11:23;34.90;;;21.05;;
63930;SDS011;50111;48.114;-2.066;2022-12-07T00:13:53;44.05;;;23.83;;
63930;SDS011;50111;48.114;-2.066;2022-12-07T00:16:20;39.08;;;21.30;;
63930;SDS011;50111;48.114;-2.066;2022-12-07T00:18:48;38.58;;;20.58;;
63930;SDS011;50111;48.114;-2.066;2022-12-07T00:21:14;36.53;;;18.13;;
63930;SDS011;50111;48.114;-2.066;2022-12-07T00:23:42;35.13;;;18.60;;
63930;SDS011;50111;48.114;-2.066;2022-12-07T00:26:10;37.03;;;18.95;;
63930;SDS011;50111;48.114;-2.066;2022-12-07T00:28:41;32.45;;;18.17;;
63930;SDS011;50111;48.114;-2.066;2022-12-07T00:31:14;38.72;;;20.90;;
63930;SDS011;50111;48.114;-2.066;2022-12-07T00:33:40;35.13;;;18.42;;
63930;SDS011;50111;48.114;-2.066;2022-12-07T00:36:07;40.10;;;18.60;;
63930;SDS011;50111;48.114;-2.066;2022-12-07T00:38:35;35.45;;;18.02;;
63930;SDS011;50111;48.114;-2.066;2022-12-07T00:41:03;34.85;;;18.15;;
63930;SDS011;50111;48.114;-2.066;2022-12-07T00:43:30;38.42;;;19.73;;
63930;SDS011;50111;48.114;-2.066;2022-12-07T00:45:56;33.92;;;18.77;;
63930;SDS011;50111;48.114;-2.066;2022-12-07T00:48:23;34.38;;;18.05;;
63930;SDS011;50111;48.114;-2.066;2022-12-07T00:50:49;36.38;;;18.60;;
63930;SDS011;50111;48.114;-2.066;2022-12-07T00:53:15;31.98;;;17.42;;
63930;SDS011;50111;48.114;-2.066;2022-12-07T00:55:41;35.13;;;18.23;;
63930;SDS011;50111;48.114;-2.066;2022-12-07T00:58:08;35.60;;;18.98;;
63930;SDS011;50111;48.114;-2.066;2022-12-07T01:00:35;34.72;;;17.92;;
63930;SDS011;50111;48.114;-2.066;2022-12-07T01:03:04;36.08;;;17.90;;
63930;SDS011;50111;48.114;-2.066;2022-12-07T01:05:30;34.88;;;18.25;;
63930;SDS011;50111;48.114;-2.066;2022-12-07T01:07:55;33.10;;;17.52;;
63930;SDS011;50111;48.114;-2.066;2022-12-07T01:10:21;34.55;;;17.25;;
63930;SDS011;50111;48.114;-2.066;2022-12-07T01:12:47;34.08;;;16.98;;
63930;SDS011;50111;48.114;-2.066;2022-12-07T01:15:12;30.50;;;16.80;;
63930;SDS011;50111;48.114;-2.066;2022-12-07T01:17:38;30.25;;;16.48;;
63930;SDS011;50111;48.114;-2.066;2022-12-07T01:20:05;32.10;;;16.05;;
63930;SDS011;50111;48.114;-2.066;2022-12-07T01:22:36;30.90;;;16.92;;
63930;SDS011;50111;48.114;-2.066;2022-12-07T01:25:02;30.25;;;16.30;;
63930;SDS011;50111;48.114;-2.066;2022-12-07T01:27:28;30.52;;;16.02;;
63930;SDS011;50111;48.114;-2.066;2022-12-07T01:29:54;34.15;;;17.23;;
63930;SDS011;50111;48.114;-2.066;2022-12-07T01:32:19;31.95;;;17.25;;
63930;SDS011;50111;48.114;-2.066;2022-12-07T01:34:47;34.95;;;17.20;;
63930;SDS011;50111;48.114;-2.066;2022-12-07T01:37:13;32.72;;;17.20;;
63930;SDS011;50111;48.114;-2.066;2022-12-07T01:39:39;36.58;;;17.77;;
63930;SDS011;50111;48.114;-2.066;2022-12-07T01:42:04;33.20;;;18.65;;
63930;SDS011;50111;48.114;-2.066;2022-12-07T01:44:30;30.90;;;16.92;;
63930;SDS011;50111;48.114;-2.066;2022-12-07T01:46:58;32.75;;;17.63;;
63930;SDS011;50111;48.114;-2.066;2022-12-07T01:49:27;40.50;;;18.98;;
63930;SDS011;50111;48.114;-2.066;2022-12-07T01:52:10;37.22;;;18.55;;
63930;SDS011;50111;48.114;-2.066;2022-12-07T01:54:42;35.60;;;18.63;;
63930;SDS011;50111;48.114;-2.066;2022-12-07T01:57:09;36.88;;;19.05;;
63930;SDS011;50111;48.114;-2.066;2022-12-07T01:59:36;39.03;;;18.33;;
63930;SDS011;50111;48.114;-2.066;2022-12-07T02:02:03;35.22;;;19.35;;
63930;SDS011;50111;48.114;-2.066;2022-12-07T02:04:35;32.88;;;16.27;;
63930;SDS011;50111;48.114;-2.066;2022-12-07T02:07:01;34.38;;;16.58;;
63930;SDS011;50111;48.114;-2.066;2022-12-07T02:09:28;30.63;;;16.77;;
63930;SDS011;50111;48.114;-2.066;2022-12-07T02:11:54;30.40;;;17.17;;
63930;SDS011;50111;48.114;-2.066;2022-12-07T02:14:20;32.75;;;15.23;;
63930;SDS011;50111;48.114;-2.066;2022-12-07T02:27:52;30.23;;;15.27;;
63930;SDS011;50111;48.114;-2.066;2022-12-07T02:30:42;30.13;;;15.32;;
63930;SDS011;50111;48.114;-2.066;2022-12-07T02:33:13;32.25;;;17.15;;
63930;SDS011;50111;48.114;-2.066;2022-12-07T02:35:43;32.38;;;16.90;;
63930;SDS011;50111;48.114;-2.066;2022-12-07T02:38:28;38.05;;;16.98;;
63930;SDS011;50111;48.114;-2.066;2022-12-07T02:41:13;34.17;;;15.88;;
63930;SDS011;50111;48.114;-2.066;2022-12-07T02:43:45;27.65;;;14.73;;
63930;SDS011;50111;48.114;-2.066;2022-12-07T02:46:17;32.22;;;15.95;;
63930;SDS011;50111;48.114;-2.066;2022-12-07T02:48:53;27.77;;;15.10;;
63930;SDS011;50111;48.114;-2.066;2022-12-07T02:51:20;29.60;;;15.82;;
63930;SDS011;50111;48.114;-2.066;2022-12-07T02:53:46;30.25;;;14.82;;
63930;SDS011;50111;48.114;-2.066;2022-12-07T03:07:05;33.85;;;14.90;;
63930;SDS011;50111;48.114;-2.066;2022-12-07T03:09:46;36.85;;;18.00;;
63930;SDS011;50111;48.114;-2.066;2022-12-07T03:12:22;37.53;;;17.37;;
63930;SDS011;50111;48.114;-2.066;2022-12-07T03:15:17;43.25;;;17.95;;
63930;SDS011;50111;48.114;-2.066;2022-12-07T03:17:46;52.13;;;17.20;;
63930;SDS011;50111;48.114;-2.066;2022-12-07T03:20:13;48.58;;;17.63;;
63930;SDS011;50111;48.114;-2.066;2022-12-07T03:22:42;43.47;;;17.80;;
63930;SDS011;50111;48.114;-2.066;2022-12-07T03:25:10;49.70;;;17.33;;
63930;SDS011;50111;48.114;-2.066;2022-12-07T03:27:42;42.55;;;17.42;;
63930;SDS011;50111;48.114;-2.066;2022-12-07T03:30:12;53.30;;;24.15;;
63930;SDS011;50111;48.114;-2.066;2022-12-07T03:32:43;63.58;;;24.73;;
63930;SDS011;50111;48.114;-2.066;2022-12-07T03:40:47;60.15;;;26.90;;
63930;SDS011;50111;48.114;-2.066;2022-12-07T03:43:39;73.60;;;19.08;;
63930;SDS011;50111;48.114;-2.066;2022-12-07T03:49:04;72.15;;;18.77;;
63930;SDS011;50111;48.114;-2.066;2022-12-07T03:51:37;106.88;;;20.30;;
63930;SDS011;50111;48.114;-2.066;2022-12-07T03:54:21;154.52;;;32.38;;
63930;SDS011;50111;48.114;-2.066;2022-12-07T03:57:01;150.70;;;28.27;;
63930;SDS011;50111;48.114;-2.066;2022-12-07T03:59:29;92.95;;;26.38;;
63930;SDS011;50111;48.114;-2.066;2022-12-07T04:01:57;227.60;;;28.00;;
63930;SDS011;50111;48.114;-2.066;2022-12-07T04:04:26;92.22;;;38.13;;
63930;SDS011;50111;48.114;-2.066;2022-12-07T04:06:53;118.82;;;35.45;;
63930;SDS011;50111;48.114;-2.066;2022-12-07T04:09:18;116.90;;;25.98;;
63930;SDS011;50111;48.114;-2.066;2022-12-07T04:11:45;66.22;;;20.10;;
63930;SDS011;50111;48.114;-2.066;2022-12-07T04:14:10;35.42;;;16.48;;
63930;SDS011;50111;48.114;-2.066;2022-12-07T04:16:52;37.28;;;18.25;;
63930;SDS011;50111;48.114;-2.066;2022-12-07T04:19:27;36.00;;;18.40;;
63930;SDS011;50111;48.114;-2.066;2022-12-07T04:21:55;47.35;;;18.38;;
63930;SDS011;50111;48.114;-2.066;2022-12-07T04:24:21;63.42;;;18.13;;
63930;SDS011;50111;48.114;-2.066;2022-12-07T04:26:48;53.50;;;17.42;;
63930;SDS011;50111;48.114;-2.066;2022-12-07T04:29:13;79.47;;;17.70;;
63930;SDS011;50111;48.114;-2.066;2022-12-07T04:31:40;67.18;;;18.15;;
63930;SDS011;50111;48.114;-2.066;2022-12-07T04:34:06;108.45;;;19.92;;
63930;SDS011;50111;48.114;-2.066;2022-12-07T04:36:32;55.33;;;18.58;;
63930;SDS011;50111;48.114;-2.066;2022-12-07T04:38:59;46.67;;;22.15;;
63930;SDS011;50111;48.114;-2.066;2022-12-07T04:41:25;41.75;;;18.30;;
63930;SDS011;50111;48.114;-2.066;2022-12-07T04:43:58;36.25;;;16.48;;
63930;SDS011;50111;48.114;-2.066;2022-12-07T04:46:25;35.38;;;15.68;;
63930;SDS011;50111;48.114;-2.066;2022-12-07T04:48:52;29.20;;;14.82;;
63930;SDS011;50111;48.114;-2.066;2022-12-07T04:51:19;36.53;;;15.57;;
63930;SDS011;50111;48.114;-2.066;2022-12-07T04:53:50;28.05;;;15.43;;
63930;SDS011;50111;48.114;-2.066;2022-12-07T04:56:16;37.47;;;16.63;;
63930;SDS011;50111;48.114;-2.066;2022-12-07T04:58:43;38.70;;;13.40;;
63930;SDS011;50111;48.114;-2.066;2022-12-07T05:01:10;54.63;;;16.50;;
63930;SDS011;50111;48.114;-2.066;2022-12-07T05:03:36;37.55;;;16.40;;
63930;SDS011;50111;48.114;-2.066;2022-12-07T05:06:02;34.60;;;14.85;;
63930;SDS011;50111;48.114;-2.066;2022-12-07T05:08:28;32.70;;;14.40;;
63930;SDS011;50111;48.114;-2.066;2022-12-07T05:10:54;28.98;;;14.40;;
63930;SDS011;50111;48.114;-2.066;2022-12-07T05:13:20;36.60;;;15.70;;
63930;SDS011;50111;48.114;-2.066;2022-12-07T05:15:46;31.33;;;14.85;;
63930;SDS011;50111;48.114;-2.066;2022-12-07T05:18:12;33.40;;;16.35;;
63930;SDS011;50111;48.114;-2.066;2022-12-07T05:20:39;27.90;;;13.93;;
63930;SDS011;50111;48.114;-2.066;2022-12-07T05:23:05;34.80;;;15.23;;
63930;SDS011;50111;48.114;-2.066;2022-12-07T05:25:31;38.00;;;14.02;;
63930;SDS011;50111;48.114;-2.066;2022-12-07T05:27:56;38.72;;;14.55;;
63930;SDS011;50111;48.114;-2.066;2022-12-07T05:30:25;50.42;;;15.38;;
63930;SDS011;50111;48.114;-2.066;2022-12-07T05:32:51;76.18;;;16.10;;
63930;SDS011;50111;48.114;-2.066;2022-12-07T05:35:17;43.05;;;15.60;;
63930;SDS011;50111;48.114;-2.066;2022-12-07T05:37:43;45.70;;;15.73;;
63930;SDS011;50111;48.114;-2.066;2022-12-07T05:40:09;51.50;;;15.85;;
63930;SDS011;50111;48.114;-2.066;2022-12-07T05:42:36;40.38;;;16.42;;
63930;SDS011;50111;48.114;-2.066;2022-12-07T05:45:02;62.72;;;17.63;;
63930;SDS011;50111;48.114;-2.066;2022-12-07T05:47:29;36.67;;;14.80;;
63930;SDS011;50111;48.114;-2.066;2022-12-07T05:49:54;26.13;;;14.00;;
63930;SDS011;50111;48.114;-2.066;2022-12-07T05:52:20;33.50;;;16.50;;
63930;SDS011;50111;48.114;-2.066;2022-12-07T05:54:46;27.60;;;14.45;;
63930;SDS011;50111;48.114;-2.066;2022-12-07T05:57:12;27.63;;;14.52;;
63930;SDS011;50111;48.114;-2.066;2022-12-07T05:59:37;36.60;;;14.50;;
63930;SDS011;50111;48.114;-2.066;2022-12-07T06:02:04;28.00;;;13.20;;
63930;SDS011;50111;48.114;-2.066;2022-12-07T06:04:32;30.67;;;14.52;;
63930;SDS011;50111;48.114;-2.066;2022-12-07T06:07:00;31.08;;;14.48;;
63930;SDS011;50111;48.114;-2.066;2022-12-07T06:09:26;34.10;;;14.80;;
63930;SDS011;50111;48.114;-2.066;2022-12-07T06:11:53;31.15;;;14.95;;
63930;SDS011;50111;48.114;-2.066;2022-12-07T06:14:37;38.13;;;15.20;;
63930;SDS011;50111;48.114;-2.066;2022-12-07T06:17:03;28.98;;;14.45;;
63930;SDS011;50111;48.114;-2.066;2022-12-07T06:19:30;33.20;;;17.25;;
63930;SDS011;50111;48.114;-2.066;2022-12-07T06:21:55;48.55;;;16.95;;
63930;SDS011;50111;48.114;-2.066;2022-12-07T06:24:21;36.28;;;16.77;;
63930;SDS011;50111;48.114;-2.066;2022-12-07T06:26:47;38.50;;;20.70;;
63930;SDS011;50111;48.114;-2.066;2022-12-07T06:29:13;43.00;;;21.33;;
63930;SDS011;50111;48.114;-2.066;2022-12-07T06:31:39;36.60;;;19.42;;
63930;SDS011;50111;48.114;-2.066;2022-12-07T06:34:06;30.17;;;16.13;;
63930;SDS011;50111;48.114;-2.066;2022-12-07T06:36:35;31.20;;;17.02;;
63930;SDS011;50111;48.114;-2.066;2022-12-07T06:39:01;28.90;;;14.88;;
63930;SDS011;50111;48.114;-2.066;2022-12-07T06:41:27;29.13;;;15.18;;
63930;SDS011;50111;48.114;-2.066;2022-12-07T06:43:53;29.55;;;15.55;;
63930;SDS011;50111;48.114;-2.066;2022-12-07T06:46:18;34.35;;;16.05;;
63930;SDS011;50111;48.114;-2.066;2022-12-07T06:48:45;36.22;;;15.80;;
63930;SDS011;50111;48.114;-2.066;2022-12-07T06:51:10;35.90;;;17.92;;
63930;SDS011;50111;48.114;-2.066;2022-12-07T06:53:36;30.40;;;16.65;;
63930;SDS011;50111;48.114;-2.066;2022-12-07T06:56:03;35.35;;;16.10;;
63930;SDS011;50111;48.114;-2.066;2022-12-07T06:58:29;36.63;;;16.60;;
63930;SDS011;50111;48.114;-2.066;2022-12-07T07:00:55;57.17;;;18.75;;
63930;SDS011;50111;48.114;-2.066;2022-12-07T07:03:21;36.08;;;16.83;;
63930;SDS011;50111;48.114;-2.066;2022-12-07T07:05:47;38.60;;;17.52;;
63930;SDS011;50111;48.114;-2.066;2022-12-07T07:08:13;34.70;;;17.00;;
63930;SDS011;50111;48.114;-2.066;2022-12-07T07:10:38;40.05;;;18.25;;
63930;SDS011;50111;48.114;-2.066;2022-12-07T07:13:05;41.83;;;16.63;;
63930;SDS011;50111;48.114;-2.066;2022-12-07T07:15:31;39.42;;;17.98;;
63930;SDS011;50111;48.114;-2.066;2022-12-07T07:17:57;41.47;;;17.13;;
63930;SDS011;50111;48.114;-2.066;2022-12-07T07:20:23;37.05;;;17.45;;
63930;SDS011;50111;48.114;-2.066;2022-12-07T07:22:49;57.78;;;17.50;;
63930;SDS011;50111;48.114;-2.066;2022-12-07T07:25:14;40.35;;;20.90;;
63930;SDS011;50111;48.114;-2.066;2022-12-07T07:27:40;40.08;;;18.65;;
63930;SDS011;50111;48.114;-2.066;2022-12-07T07:30:06;34.28;;;17.23;;
63930;SDS011;50111;48.114;-2.066;2022-12-07T07:32:33;33.28;;;17.50;;
63930;SDS011;50111;48.114;-2.066;2022-12-07T07:34:59;39.45;;;17.67;;
63930;SDS011;50111;48.114;-2.066;2022-12-07T07:37:25;34.65;;;16.77;;
63930;SDS011;50111;48.114;-2.066;2022-12-07T07:39:52;37.92;;;16.98;;
63930;SDS011;50111;48.114;-2.066;2022-12-07T07:42:18;41.95;;;20.40;;
63930;SDS011;50111;48.114;-2.066;2022-12-07T07:44:43;39.10;;;19.92;;
63930;SDS011;50111;48.114;-2.066;2022-12-07T07:47:09;38.90;;;18.92;;
63930;SDS011;50111;48.114;-2.066;2022-12-07T07:49:34;38.17;;;18.48;;
63930;SDS011;50111;48.114;-2.066;2022-12-07T07:52:00;35.60;;;18.27;;
63930;SDS011;50111;48.114;-2.066;2022-12-07T07:54:26;32.63;;;18.40;;
63930;SDS011;50111;48.114;-2.066;2022-12-07T07:56:52;31.13;;;16.67;;
63930;SDS011;50111;48.114;-2.066;2022-12-07T07:59:18;31.55;;;17.27;;
63930;SDS011;50111;48.114;-2.066;2022-12-07T08:01:43;30.48;;;16.25;;
63930;SDS011;50111;48.114;-2.066;2022-12-07T08:04:09;33.58;;;18.77;;
63930;SDS011;50111;48.114;-2.066;2022-12-07T08:06:34;33.00;;;16.75;;
63930;SDS011;50111;48.114;-2.066;2022-12-07T08:09:00;32.47;;;17.27;;
63930;SDS011;50111;48.114;-2.066;2022-12-07T08:11:26;33.92;;;16.90;;
63930;SDS011;50111;48.114;-2.066;2022-12-07T08:13:52;39.78;;;20.95;;
63930;SDS011;50111;48.114;-2.066;2022-12-07T08:16:18;50.28;;;25.23;;
63930;SDS011;50111;48.114;-2.066;2022-12-07T08:18:43;54.17;;;26.63;;
63930;SDS011;50111;48.114;-2.066;2022-12-07T08:21:11;43.47;;;23.85;;
63930;SDS011;50111;48.114;-2.066;2022-12-07T08:23:38;40.80;;;20.98;;
63930;SDS011;50111;48.114;-2.066;2022-12-07T08:26:05;41.97;;;21.95;;
63930;SDS011;50111;48.114;-2.066;2022-12-07T08:28:35;44.97;;;25.23;;
63930;SDS011;50111;48.114;-2.066;2022-12-07T08:31:06;36.22;;;23.10;;
63930;SDS011;50111;48.114;-2.066;2022-12-07T08:33:35;37.65;;;22.13;;
63930;SDS011;50111;48.114;-2.066;2022-12-07T08:36:05;36.35;;;20.77;;
63930;SDS011;50111;48.114;-2.066;2022-12-07T08:38:33;42.35;;;22.58;;
63930;SDS011;50111;48.114;-2.066;2022-12-07T08:41:00;37.83;;;19.52;;
63930;SDS011;50111;48.114;-2.066;2022-12-07T08:43:26;34.17;;;17.92;;
63930;SDS011;50111;48.114;-2.066;2022-12-07T08:48:46;35.08;;;19.65;;
63930;SDS011;50111;48.114;-2.066;2022-12-07T08:51:19;38.05;;;22.90;;
63930;SDS011;50111;48.114;-2.066;2022-12-07T08:53:46;40.75;;;25.02;;
63930;SDS011;50111;48.114;-2.066;2022-12-07T08:56:13;33.78;;;20.40;;
63930;SDS011;50111;48.114;-2.066;2022-12-07T08:58:38;36.15;;;20.73;;
63930;SDS011;50111;48.114;-2.066;2022-12-07T09:01:05;34.00;;;21.13;;
63930;SDS011;50111;48.114;-2.066;2022-12-07T09:03:31;35.50;;;20.55;;
63930;SDS011;50111;48.114;-2.066;2022-12-07T09:05:57;38.15;;;20.92;;
63930;SDS011;50111;48.114;-2.066;2022-12-07T09:08:25;33.95;;;17.73;;
63930;SDS011;50111;48.114;-2.066;2022-12-07T09:10:53;32.55;;;20.23;;
63930;SDS011;50111;48.114;-2.066;2022-12-07T09:13:18;30.58;;;17.83;;
63930;SDS011;50111;48.114;-2.066;2022-12-07T09:15:44;40.97;;;26.27;;
63930;SDS011;50111;48.114;-2.066;2022-12-07T09:18:09;41.60;;;25.05;;
63930;SDS011;50111;48.114;-2.066;2022-12-07T09:20:35;33.90;;;18.77;;
63930;SDS011;50111;48.114;-2.066;2022-12-07T09:23:01;37.85;;;22.17;;
63930;SDS011;50111;48.114;-2.066;2022-12-07T09:25:26;32.25;;;19.10;;
63930;SDS011;50111;48.114;-2.066;2022-12-07T09:27:56;28.33;;;16.92;;
63930;SDS011;50111;48.114;-2.066;2022-12-07T09:30:23;28.10;;;16.98;;
63930;SDS011;50111;48.114;-2.066;2022-12-07T09:32:49;24.80;;;15.00;;
63930;SDS011;50111;48.114;-2.066;2022-12-07T09:35:15;34.60;;;20.80;;
63930;SDS011;50111;48.114;-2.066;2022-12-07T09:37:40;25.80;;;17.15;;
63930;SDS011;50111;48.114;-2.066;2022-12-07T09:40:06;24.60;;;15.82;;
63930;SDS011;50111;48.114;-2.066;2022-12-07T09:42:34;22.40;;;14.15;;
63930;SDS011;50111;48.114;-2.066;2022-12-07T09:45:11;19.75;;;12.82;;
63930;SDS011;50111;48.114;-2.066;2022-12-07T09:47:49;22.15;;;13.57;;
63930;SDS011;50111;48.114;-2.066;2022-12-07T09:50:16;19.75;;;12.48;;
63930;SDS011;50111;48.114;-2.066;2022-12-07T09:52:48;22.85;;;13.00;;
63930;SDS011;50111;48.114;-2.066;2022-12-07T09:55:16;20.17;;;12.68;;
63930;SDS011;50111;48.114;-2.066;2022-12-07T09:57:47;28.90;;;15.57;;
63930;SDS011;50111;48.114;-2.066;2022-12-07T10:00:17;22.02;;;12.43;;
63930;SDS011;50111;48.114;-2.066;2022-12-07T10:02:47;26.10;;;13.65;;
63930;SDS011;50111;48.114;-2.066;2022-12-07T10:05:41;24.30;;;14.27;;
63930;SDS011;50111;48.114;-2.066;2022-12-07T10:08:11;21.77;;;12.05;;
63930;SDS011;50111;48.114;-2.066;2022-12-07T10:10:38;19.88;;;12.43;;
63930;SDS011;50111;48.114;-2.066;2022-12-07T10:13:06;22.73;;;13.82;;
63930;SDS011;50111;48.114;-2.066;2022-12-07T10:15:43;24.48;;;13.40;;
63930;SDS011;50111;48.114;-2.066;2022-12-07T10:23:42;22.48;;;12.07;;
63930;SDS011;50111;48.114;-2.066;2022-12-07T10:29:01;21.50;;;12.82;;
63930;SDS011;50111;48.114;-2.066;2022-12-07T10:31:42;21.38;;;13.70;;
63930;SDS011;50111;48.114;-2.066;2022-12-07T10:34:23;25.52;;;13.73;;
63930;SDS011;50111;48.114;-2.066;2022-12-07T10:37:06;34.83;;;13.57;;
63930;SDS011;50111;48.114;-2.066;2022-12-07T10:39:49;25.77;;;15.52;;
63930;SDS011;50111;48.114;-2.066;2022-12-07T10:42:21;26.95;;;16.02;;
63930;SDS011;50111;48.114;-2.066;2022-12-07T10:45:06;26.05;;;16.08;;
63930;SDS011;50111;48.114;-2.066;2022-12-07T10:52:58;30.80;;;17.10;;
63930;SDS011;50111;48.114;-2.066;2022-12-07T11:03:55;32.17;;;20.00;;
63930;SDS011;50111;48.114;-2.066;2022-12-07T11:06:44;32.03;;;17.60;;
63930;SDS011;50111;48.114;-2.066;2022-12-07T11:09:43;33.28;;;21.77;;
63930;SDS011;50111;48.114;-2.066;2022-12-07T11:15:09;29.38;;;16.33;;
63930;SDS011;50111;48.114;-2.066;2022-12-07T11:20:52;42.53;;;23.00;;
63930;SDS011;50111;48.114;-2.066;2022-12-07T11:31:50;27.17;;;16.40;;
63930;SDS011;50111;48.114;-2.066;2022-12-07T11:37:06;26.42;;;16.85;;
63930;SDS011;50111;48.114;-2.066;2022-12-07T11:39:54;28.40;;;15.90;;
63930;SDS011;50111;48.114;-2.066;2022-12-07T11:42:25;28.67;;;15.23;;
63930;SDS011;50111;48.114;-2.066;2022-12-07T11:45:12;25.70;;;15.07;;
63930;SDS011;50111;48.114;-2.066;2022-12-07T11:47:59;24.55;;;14.35;;
63930;SDS011;50111;48.114;-2.066;2022-12-07T12:03:46;25.95;;;14.95;;
63930;SDS011;50111;48.114;-2.066;2022-12-07T12:06:14;66.40;;;32.08;;
63930;SDS011;50111;48.114;-2.066;2022-12-07T12:08:48;26.60;;;14.80;;
63930;SDS011;50111;48.114;-2.066;2022-12-07T12:17:55;23.80;;;13.75;;
63930;SDS011;50111;48.114;-2.066;2022-12-07T12:20:42;21.52;;;12.45;;
63930;SDS011;50111;48.114;-2.066;2022-12-07T12:25:45;24.10;;;13.85;;
63930;SDS011;50111;48.114;-2.066;2022-12-07T12:33:56;23.00;;;12.75;;
63930;SDS011;50111;48.114;-2.066;2022-12-07T12:51:55;21.02;;;11.98;;
63930;SDS011;50111;48.114;-2.066;2022-12-07T12:54:34;21.17;;;12.13;;
63930;SDS011;50111;48.114;-2.066;2022-12-07T12:57:09;19.83;;;11.93;;
63930;SDS011;50111;48.114;-2.066;2022-12-07T13:05:00;24.05;;;13.18;;
63930;SDS011;50111;48.114;-2.066;2022-12-07T13:15:54;36.25;;;14.05;;
63930;SDS011;50111;48.114;-2.066;2022-12-07T13:23:27;19.70;;;11.25;;
63930;SDS011;50111;48.114;-2.066;2022-12-07T13:25:55;23.33;;;12.55;;
63930;SDS011;50111;48.114;-2.066;2022-12-07T13:28:38;19.65;;;11.57;;
63930;SDS011;50111;48.114;-2.066;2022-12-07T13:33:53;19.90;;;11.32;;
63930;SDS011;50111;48.114;-2.066;2022-12-07T13:36:37;26.10;;;11.95;;
63930;SDS011;50111;48.114;-2.066;2022-12-07T13:41:41;22.15;;;11.50;;
63930;SDS011;50111;48.114;-2.066;2022-12-07T13:44:12;19.50;;;11.07;;
63930;SDS011;50111;48.114;-2.066;2022-12-07T13:51:48;18.85;;;10.20;;
63930;SDS011;50111;48.114;-2.066;2022-12-07T13:54:14;23.80;;;11.55;;
63930;SDS011;50111;48.114;-2.066;2022-12-07T13:56:41;21.95;;;11.38;;
63930;SDS011;50111;48.114;-2.066;2022-12-07T13:59:20;18.65;;;11.10;;
63930;SDS011;50111;48.114;-2.066;2022-12-07T14:01:48;21.13;;;11.38;;
63930;SDS011;50111;48.114;-2.066;2022-12-07T14:09:59;18.52;;;10.52;;
63930;SDS011;50111;48.114;-2.066;2022-12-07T14:12:26;19.52;;;10.05;;
63930;SDS011;50111;48.114;-2.066;2022-12-07T14:14:53;17.73;;;9.75;;
63930;SDS011;50111;48.114;-2.066;2022-12-07T14:17:24;20.38;;;11.48;;
63930;SDS011;50111;48.114;-2.066;2022-12-07T14:19:57;17.02;;;10.02;;
63930;SDS011;50111;48.114;-2.066;2022-12-07T14:22:33;16.70;;;9.68;;
63930;SDS011;50111;48.114;-2.066;2022-12-07T14:25:01;18.73;;;9.57;;
63930;SDS011;50111;48.114;-2.066;2022-12-07T14:27:31;14.82;;;8.98;;
63930;SDS011;50111;48.114;-2.066;2022-12-07T14:30:01;16.90;;;9.55;;
63930;SDS011;50111;48.114;-2.066;2022-12-07T14:32:29;19.02;;;9.80;;
63930;SDS011;50111;48.114;-2.066;2022-12-07T14:35:11;17.08;;;9.55;;
63930;SDS011;50111;48.114;-2.066;2022-12-07T14:37:38;18.48;;;10.02;;
63930;SDS011;50111;48.114;-2.066;2022-12-07T14:40:06;18.92;;;10.68;;
63930;SDS011;50111;48.114;-2.066;2022-12-07T14:42:32;20.58;;;10.02;;
63930;SDS011;50111;48.114;-2.066;2022-12-07T14:45:00;17.05;;;9.55;;
63930;SDS011;50111;48.114;-2.066;2022-12-07T14:47:26;19.33;;;10.45;;
63930;SDS011;50111;48.114;-2.066;2022-12-07T14:49:52;24.27;;;11.60;;
63930;SDS011;50111;48.114;-2.066;2022-12-07T14:52:27;21.52;;;10.15;;
63930;SDS011;50111;48.114;-2.066;2022-12-07T14:54:55;19.92;;;10.40;;
63930;SDS011;50111;48.114;-2.066;2022-12-07T14:57:21;19.35;;;10.93;;
63930;SDS011;50111;48.114;-2.066;2022-12-07T14:59:48;19.80;;;10.52;;
63930;SDS011;50111;48.114;-2.066;2022-12-07T15:02:15;20.77;;;11.20;;
63930;SDS011;50111;48.114;-2.066;2022-12-07T15:04:41;19.73;;;9.95;;
63930;SDS011;50111;48.114;-2.066;2022-12-07T15:07:25;19.40;;;10.20;;
63930;SDS011;50111;48.114;-2.066;2022-12-07T15:09:51;20.90;;;11.93;;
63930;SDS011;50111;48.114;-2.066;2022-12-07T15:12:17;23.67;;;12.85;;
63930;SDS011;50111;48.114;-2.066;2022-12-07T15:14:42;22.80;;;12.68;;
63930;SDS011;50111;48.114;-2.066;2022-12-07T15:17:09;20.42;;;11.35;;
63930;SDS011;50111;48.114;-2.066;2022-12-07T15:19:35;22.90;;;11.35;;
63930;SDS011;50111;48.114;-2.066;2022-12-07T15:22:01;24.23;;;12.77;;
63930;SDS011;50111;48.114;-2.066;2022-12-07T15:24:27;30.48;;;12.68;;
63930;SDS011;50111;48.114;-2.066;2022-12-07T15:26:52;23.27;;;13.30;;
63930;SDS011;50111;48.114;-2.066;2022-12-07T15:29:18;25.25;;;13.35;;
63930;SDS011;50111;48.114;-2.066;2022-12-07T15:31:44;22.20;;;12.90;;
63930;SDS011;50111;48.114;-2.066;2022-12-07T15:34:10;27.08;;;13.70;;
63930;SDS011;50111;48.114;-2.066;2022-12-07T15:36:36;20.70;;;12.95;;
63930;SDS011;50111;48.114;-2.066;2022-12-07T15:39:01;26.58;;;12.45;;
63930;SDS011;50111;48.114;-2.066;2022-12-07T15:41:28;26.58;;;13.10;;
63930;SDS011;50111;48.114;-2.066;2022-12-07T15:43:53;23.73;;;13.93;;
63930;SDS011;50111;48.114;-2.066;2022-12-07T15:46:40;26.35;;;15.07;;
63930;SDS011;50111;48.114;-2.066;2022-12-07T15:49:14;25.83;;;14.87;;
63930;SDS011;50111;48.114;-2.066;2022-12-07T15:51:42;35.85;;;14.73;;
63930;SDS011;50111;48.114;-2.066;2022-12-07T15:54:18;26.08;;;14.52;;
63930;SDS011;50111;48.114;-2.066;2022-12-07T15:56:45;30.35;;;15.82;;
63930;SDS011;50111;48.114;-2.066;2022-12-07T15:59:11;28.35;;;15.00;;
63930;SDS011;50111;48.114;-2.066;2022-12-07T16:01:37;32.42;;;15.50;;
63930;SDS011;50111;48.114;-2.066;2022-12-07T16:04:02;28.83;;;15.23;;
63930;SDS011;50111;48.114;-2.066;2022-12-07T16:06:28;27.98;;;15.80;;
63930;SDS011;50111;48.114;-2.066;2022-12-07T16:08:54;32.33;;;16.80;;
63930;SDS011;50111;48.114;-2.066;2022-12-07T16:11:20;30.65;;;15.63;;
63930;SDS011;50111;48.114;-2.066;2022-12-07T16:13:46;30.27;;;16.95;;
63930;SDS011;50111;48.114;-2.066;2022-12-07T16:16:13;32.83;;;19.63;;
63930;SDS011;50111;48.114;-2.066;2022-12-07T16:18:41;27.55;;;16.45;;
63930;SDS011;50111;48.114;-2.066;2022-12-07T16:21:08;36.33;;;18.17;;
63930;SDS011;50111;48.114;-2.066;2022-12-07T16:23:33;33.15;;;18.48;;
63930;SDS011;50111;48.114;-2.066;2022-12-07T16:26:06;31.48;;;16.13;;
63930;SDS011;50111;48.114;-2.066;2022-12-07T16:28:33;27.13;;;14.68;;
63930;SDS011;50111;48.114;-2.066;2022-12-07T16:31:09;25.77;;;14.63;;
63930;SDS011;50111;48.114;-2.066;2022-12-07T16:33:37;27.67;;;15.27;;
63930;SDS011;50111;48.114;-2.066;2022-12-07T16:36:04;32.08;;;16.83;;
63930;SDS011;50111;48.114;-2.066;2022-12-07T16:38:31;34.13;;;18.33;;
63930;SDS011;50111;48.114;-2.066;2022-12-07T16:40:57;35.05;;;18.05;;
63930;SDS011;50111;48.114;-2.066;2022-12-07T16:43:23;32.85;;;16.85;;
63930;SDS011;50111;48.114;-2.066;2022-12-07T16:45:49;28.13;;;15.77;;
63930;SDS011;50111;48.114;-2.066;2022-12-07T16:48:16;30.48;;;16.75;;
63930;SDS011;50111;48.114;-2.066;2022-12-07T16:50:43;31.40;;;15.15;;